sensor_id;sensor_type;location;lat;lon;timestamp;temperature;humidity
33023;DHT22;19390;51.460;5.710;2022-09-30T00:02:22;3.80;99.90
33023;DHT22;19390;51.460;5.710;2022-09-30T00:04:48;4.00;99.90
33023;DHT22;19390;51.460;5.710;2022-09-30T00:07:14;4.00;99.90
33023;DHT22;19390;51.460;5.710;2022-09-30T00:09:40;4.00;99.90
33023;DHT22;19390;51.460;5.710;2022-09-30T00:12:05;4.00;99.90
33023;DHT22;19390;51.460;5.710;2022-09-30T00:14:31;4.00;99.90
33023;DHT22;19390;51.460;5.710;2022-09-30T00:16:57;4.00;99.90
33023;DHT22;19390;51.460;5.710;2022-09-30T00:19:24;3.80;99.90
33023;DHT22;19390;51.460;5.710;2022-09-30T00:21:49;3.80;99.90
33023;DHT22;19390;51.460;5.710;2022-09-30T00:24:15;3.90;99.90
33023;DHT22;19390;51.460;5.710;2022-09-30T00:26:41;3.90;99.90
33023;DHT22;19390;51.460;5.710;2022-09-30T00:29:08;3.80;99.90
33023;DHT22;19390;51.460;5.710;2022-09-30T00:31:35;3.80;99.90
33023;DHT22;19390;51.460;5.710;2022-09-30T00:34:01;3.70;99.90
33023;DHT22;19390;51.460;5.710;2022-09-30T00:39:36;3.60;99.90
33023;DHT22;19390;51.460;5.710;2022-09-30T00:42:03;3.70;99.90
33023;DHT22;19390;51.460;5.710;2022-09-30T00:53:10;3.60;99.90
33023;DHT22;19390;51.460;5.710;2022-09-30T00:55:50;3.50;99.90
33023;DHT22;19390;51.460;5.710;2022-09-30T01:01:00;3.40;99.90
33023;DHT22;19390;51.460;5.710;2022-09-30T01:03:37;3.60;99.90
33023;DHT22;19390;51.460;5.710;2022-09-30T01:06:03;3.40;99.90
33023;DHT22;19390;51.460;5.710;2022-09-30T01:08:32;3.40;99.90
33023;DHT22;19390;51.460;5.710;2022-09-30T01:11:00;3.20;99.90
33023;DHT22;19390;51.460;5.710;2022-09-30T01:13:27;3.10;99.90
33023;DHT22;19390;51.460;5.710;2022-09-30T01:21:54;3.30;99.90
33023;DHT22;19390;51.460;5.710;2022-09-30T01:27:19;3.30;99.90
33023;DHT22;19390;51.460;5.710;2022-09-30T01:32:51;3.30;99.90
33023;DHT22;19390;51.460;5.710;2022-09-30T01:38:37;3.20;99.90
33023;DHT22;19390;51.460;5.710;2022-09-30T01:41:09;3.00;99.90
33023;DHT22;19390;51.460;5.710;2022-09-30T01:44:06;3.00;99.90
33023;DHT22;19390;51.460;5.710;2022-09-30T01:46:42;2.90;99.90
33023;DHT22;19390;51.460;5.710;2022-09-30T01:49:32;2.80;99.90
33023;DHT22;19390;51.460;5.710;2022-09-30T01:52:07;2.90;99.90
33023;DHT22;19390;51.460;5.710;2022-09-30T01:54:43;3.00;99.90
33023;DHT22;19390;51.460;5.710;2022-09-30T01:57:19;3.10;99.90
33023;DHT22;19390;51.460;5.710;2022-09-30T01:59:56;3.10;99.90
33023;DHT22;19390;51.460;5.710;2022-09-30T02:02:29;3.00;99.90
33023;DHT22;19390;51.460;5.710;2022-09-30T02:05:07;2.90;99.90
33023;DHT22;19390;51.460;5.710;2022-09-30T02:07:39;2.80;99.90
33023;DHT22;19390;51.460;5.710;2022-09-30T02:49:48;2.70;99.90
33023;DHT22;19390;51.460;5.710;2022-09-30T02:55:17;2.60;99.90
33023;DHT22;19390;51.460;5.710;2022-09-30T02:57:55;2.70;99.90
33023;DHT22;19390;51.460;5.710;2022-09-30T03:00:21;2.60;99.90
33023;DHT22;19390;51.460;5.710;2022-09-30T03:02:50;2.60;99.90
33023;DHT22;19390;51.460;5.710;2022-09-30T03:05:18;2.50;99.90
33023;DHT22;19390;51.460;5.710;2022-09-30T03:07:43;2.50;99.90
33023;DHT22;19390;51.460;5.710;2022-09-30T03:10:16;2.50;99.90
33023;DHT22;19390;51.460;5.710;2022-09-30T03:18:44;2.40;99.90
33023;DHT22;19390;51.460;5.710;2022-09-30T03:27:01;2.40;99.90
33023;DHT22;19390;51.460;5.710;2022-09-30T03:29:40;2.50;99.90
33023;DHT22;19390;51.460;5.710;2022-09-30T03:32:26;2.50;99.90
33023;DHT22;19390;51.460;5.710;2022-09-30T03:35:03;2.50;99.90
33023;DHT22;19390;51.460;5.710;2022-09-30T03:37:40;2.50;99.90
33023;DHT22;19390;51.460;5.710;2022-09-30T03:40:41;2.50;99.90
33023;DHT22;19390;51.460;5.710;2022-09-30T03:43:28;2.50;99.90
33023;DHT22;19390;51.460;5.710;2022-09-30T03:46:25;2.50;99.90
33023;DHT22;19390;51.460;5.710;2022-09-30T03:48:55;2.40;99.90
33023;DHT22;19390;51.460;5.710;2022-09-30T04:14:51;2.50;99.90
33023;DHT22;19390;51.460;5.710;2022-09-30T04:17:16;2.80;99.90
33023;DHT22;19390;51.460;5.710;2022-09-30T04:19:42;2.60;99.90
33023;DHT22;19390;51.460;5.710;2022-09-30T04:22:09;2.80;99.90
33023;DHT22;19390;51.460;5.710;2022-09-30T04:24:35;2.80;99.90
33023;DHT22;19390;51.460;5.710;2022-09-30T04:27:01;2.80;99.90
33023;DHT22;19390;51.460;5.710;2022-09-30T04:29:26;2.70;99.90
33023;DHT22;19390;51.460;5.710;2022-09-30T04:31:53;2.70;99.90
33023;DHT22;19390;51.460;5.710;2022-09-30T04:34:19;2.60;99.90
33023;DHT22;19390;51.460;5.710;2022-09-30T04:36:44;2.60;99.90
33023;DHT22;19390;51.460;5.710;2022-09-30T04:39:10;2.80;99.90
33023;DHT22;19390;51.460;5.710;2022-09-30T04:41:36;2.80;99.90
33023;DHT22;19390;51.460;5.710;2022-09-30T04:44:02;2.50;99.90
33023;DHT22;19390;51.460;5.710;2022-09-30T04:46:32;2.30;99.90
33023;DHT22;19390;51.460;5.710;2022-09-30T04:48:58;2.40;99.90
33023;DHT22;19390;51.460;5.710;2022-09-30T04:51:24;2.50;99.90
33023;DHT22;19390;51.460;5.710;2022-09-30T04:53:50;2.80;99.90
33023;DHT22;19390;51.460;5.710;2022-09-30T04:56:16;2.60;99.90
33023;DHT22;19390;51.460;5.710;2022-09-30T04:58:42;2.50;99.90
33023;DHT22;19390;51.460;5.710;2022-09-30T05:01:10;2.30;99.90
33023;DHT22;19390;51.460;5.710;2022-09-30T05:03:37;2.60;99.90
33023;DHT22;19390;51.460;5.710;2022-09-30T05:06:04;2.90;99.90
33023;DHT22;19390;51.460;5.710;2022-09-30T05:08:30;2.90;99.90
33023;DHT22;19390;51.460;5.710;2022-09-30T05:11:00;2.80;99.90
33023;DHT22;19390;51.460;5.710;2022-09-30T05:13:31;2.70;99.90
33023;DHT22;19390;51.460;5.710;2022-09-30T05:15:57;2.60;99.90
33023;DHT22;19390;51.460;5.710;2022-09-30T05:18:23;2.50;99.90
33023;DHT22;19390;51.460;5.710;2022-09-30T05:20:55;2.50;99.90
33023;DHT22;19390;51.460;5.710;2022-09-30T05:23:22;2.60;99.90
33023;DHT22;19390;51.460;5.710;2022-09-30T05:25:50;2.90;99.90
33023;DHT22;19390;51.460;5.710;2022-09-30T05:28:16;2.80;99.90
33023;DHT22;19390;51.460;5.710;2022-09-30T05:30:42;2.70;99.90
33023;DHT22;19390;51.460;5.710;2022-09-30T05:33:10;2.50;99.90
33023;DHT22;19390;51.460;5.710;2022-09-30T05:35:37;2.50;99.90
33023;DHT22;19390;51.460;5.710;2022-09-30T05:38:03;2.70;99.90
33023;DHT22;19390;51.460;5.710;2022-09-30T05:40:29;2.80;99.90
33023;DHT22;19390;51.460;5.710;2022-09-30T05:42:59;2.70;99.90
33023;DHT22;19390;51.460;5.710;2022-09-30T05:45:25;2.70;99.90
33023;DHT22;19390;51.460;5.710;2022-09-30T05:47:54;2.50;99.90
33023;DHT22;19390;51.460;5.710;2022-09-30T05:50:22;2.60;99.90
33023;DHT22;19390;51.460;5.710;2022-09-30T05:52:47;2.80;99.90
33023;DHT22;19390;51.460;5.710;2022-09-30T05:55:18;2.80;99.90
33023;DHT22;19390;51.460;5.710;2022-09-30T05:57:47;2.90;99.90
33023;DHT22;19390;51.460;5.710;2022-09-30T06:00:13;2.90;99.90
33023;DHT22;19390;51.460;5.710;2022-09-30T06:02:39;3.00;99.90
33023;DHT22;19390;51.460;5.710;2022-09-30T06:05:06;3.30;99.90
33023;DHT22;19390;51.460;5.710;2022-09-30T06:07:33;3.90;99.90
33023;DHT22;19390;51.460;5.710;2022-09-30T06:09:59;4.60;99.90
33023;DHT22;19390;51.460;5.710;2022-09-30T06:12:25;4.70;99.90
33023;DHT22;19390;51.460;5.710;2022-09-30T06:14:54;4.70;99.90
33023;DHT22;19390;51.460;5.710;2022-09-30T06:17:20;5.50;99.90
33023;DHT22;19390;51.460;5.710;2022-09-30T06:19:46;7.20;99.90
33023;DHT22;19390;51.460;5.710;2022-09-30T06:22:12;8.20;99.90
33023;DHT22;19390;51.460;5.710;2022-09-30T06:24:38;8.80;99.90
33023;DHT22;19390;51.460;5.710;2022-09-30T06:27:03;9.20;99.90
33023;DHT22;19390;51.460;5.710;2022-09-30T06:29:29;9.00;99.90
33023;DHT22;19390;51.460;5.710;2022-09-30T06:31:54;7.80;99.90
33023;DHT22;19390;51.460;5.710;2022-09-30T06:34:20;6.90;99.90
33023;DHT22;19390;51.460;5.710;2022-09-30T06:36:46;7.60;99.90
33023;DHT22;19390;51.460;5.710;2022-09-30T06:39:11;9.20;99.90
33023;DHT22;19390;51.460;5.710;2022-09-30T06:41:37;8.60;99.90
33023;DHT22;19390;51.460;5.710;2022-09-30T06:44:05;10.30;99.90
33023;DHT22;19390;51.460;5.710;2022-09-30T06:46:30;11.40;99.90
33023;DHT22;19390;51.460;5.710;2022-09-30T06:48:56;12.20;99.90
33023;DHT22;19390;51.460;5.710;2022-09-30T06:51:23;12.60;99.90
33023;DHT22;19390;51.460;5.710;2022-09-30T06:53:53;13.20;99.90
33023;DHT22;19390;51.460;5.710;2022-09-30T06:56:20;13.90;99.90
33023;DHT22;19390;51.460;5.710;2022-09-30T06:58:46;14.00;99.90
33023;DHT22;19390;51.460;5.710;2022-09-30T07:01:12;15.10;99.90
33023;DHT22;19390;51.460;5.710;2022-09-30T07:03:40;15.60;99.90
33023;DHT22;19390;51.460;5.710;2022-09-30T07:06:06;15.90;99.90
33023;DHT22;19390;51.460;5.710;2022-09-30T07:08:33;15.00;99.90
33023;DHT22;19390;51.460;5.710;2022-09-30T07:11:01;15.30;99.90
33023;DHT22;19390;51.460;5.710;2022-09-30T07:13:28;15.20;99.90
33023;DHT22;19390;51.460;5.710;2022-09-30T07:15:54;16.30;99.90
33023;DHT22;19390;51.460;5.710;2022-09-30T07:18:25;16.00;99.90
33023;DHT22;19390;51.460;5.710;2022-09-30T07:20:53;17.10;99.90
33023;DHT22;19390;51.460;5.710;2022-09-30T07:23:20;17.30;99.90
33023;DHT22;19390;51.460;5.710;2022-09-30T07:25:57;17.60;99.90
33023;DHT22;19390;51.460;5.710;2022-09-30T07:28:26;16.60;99.90
33023;DHT22;19390;51.460;5.710;2022-09-30T07:30:54;15.10;99.90
33023;DHT22;19390;51.460;5.710;2022-09-30T07:33:25;14.50;99.90
33023;DHT22;19390;51.460;5.710;2022-09-30T07:35:54;15.10;99.90
33023;DHT22;19390;51.460;5.710;2022-09-30T07:38:21;15.40;99.90
33023;DHT22;19390;51.460;5.710;2022-09-30T07:41:17;16.10;99.90
33023;DHT22;19390;51.460;5.710;2022-09-30T07:43:44;16.60;99.90
33023;DHT22;19390;51.460;5.710;2022-09-30T07:46:19;17.30;99.90
33023;DHT22;19390;51.460;5.710;2022-09-30T07:48:46;17.00;99.90
33023;DHT22;19390;51.460;5.710;2022-09-30T07:51:19;19.60;99.90
33023;DHT22;19390;51.460;5.710;2022-09-30T07:53:51;18.50;99.90
33023;DHT22;19390;51.460;5.710;2022-09-30T07:56:17;19.30;99.90
33023;DHT22;19390;51.460;5.710;2022-09-30T07:58:43;17.40;99.90
33023;DHT22;19390;51.460;5.710;2022-09-30T08:01:09;19.20;99.90
33023;DHT22;19390;51.460;5.710;2022-09-30T08:03:37;17.60;99.90
33023;DHT22;19390;51.460;5.710;2022-09-30T08:06:15;17.80;99.90
33023;DHT22;19390;51.460;5.710;2022-09-30T08:08:43;18.40;99.90
33023;DHT22;19390;51.460;5.710;2022-09-30T08:11:10;18.80;99.90
33023;DHT22;19390;51.460;5.710;2022-09-30T08:13:36;18.20;99.90
33023;DHT22;19390;51.460;5.710;2022-09-30T08:16:03;18.70;99.90
33023;DHT22;19390;51.460;5.710;2022-09-30T08:18:29;18.60;99.90
33023;DHT22;19390;51.460;5.710;2022-09-30T08:20:55;18.50;99.90
33023;DHT22;19390;51.460;5.710;2022-09-30T08:23:21;18.50;99.90
33023;DHT22;19390;51.460;5.710;2022-09-30T08:25:47;19.90;99.90
33023;DHT22;19390;51.460;5.710;2022-09-30T08:28:13;20.10;99.90
33023;DHT22;19390;51.460;5.710;2022-09-30T08:30:39;18.00;99.90
33023;DHT22;19390;51.460;5.710;2022-09-30T08:33:05;17.90;99.90
33023;DHT22;19390;51.460;5.710;2022-09-30T08:35:33;19.80;99.90
33023;DHT22;19390;51.460;5.710;2022-09-30T08:37:59;20.20;99.90
33023;DHT22;19390;51.460;5.710;2022-09-30T08:40:32;20.00;99.90
33023;DHT22;19390;51.460;5.710;2022-09-30T08:43:57;19.90;99.90
33023;DHT22;19390;51.460;5.710;2022-09-30T08:48:59;19.20;99.90
33023;DHT22;19390;51.460;5.710;2022-09-30T08:51:43;20.40;99.90
33023;DHT22;19390;51.460;5.710;2022-09-30T08:54:13;19.60;99.90
33023;DHT22;19390;51.460;5.710;2022-09-30T08:56:41;19.00;99.90
33023;DHT22;19390;51.460;5.710;2022-09-30T09:02:21;20.30;99.90
33023;DHT22;19390;51.460;5.710;2022-09-30T09:04:49;20.10;99.90
33023;DHT22;19390;51.460;5.710;2022-09-30T09:12:50;20.50;99.90
33023;DHT22;19390;51.460;5.710;2022-09-30T09:20:59;21.20;99.90
33023;DHT22;19390;51.460;5.710;2022-09-30T09:23:29;22.40;99.90
33023;DHT22;19390;51.460;5.710;2022-09-30T09:25:57;21.80;99.90
33023;DHT22;19390;51.460;5.710;2022-09-30T09:28:27;22.20;99.90
33023;DHT22;19390;51.460;5.710;2022-09-30T09:30:57;21.90;99.90
33023;DHT22;19390;51.460;5.710;2022-09-30T09:33:30;23.60;99.90
33023;DHT22;19390;51.460;5.710;2022-09-30T09:36:04;22.20;99.90
33023;DHT22;19390;51.460;5.710;2022-09-30T09:44:28;20.90;99.90
33023;DHT22;19390;51.460;5.710;2022-09-30T09:47:04;22.50;99.90
33023;DHT22;19390;51.460;5.710;2022-09-30T09:49:38;21.00;99.90
33023;DHT22;19390;51.460;5.710;2022-09-30T09:52:10;22.50;99.90
33023;DHT22;19390;51.460;5.710;2022-09-30T09:54:45;22.90;99.90
33023;DHT22;19390;51.460;5.710;2022-09-30T09:57:15;21.70;99.90
33023;DHT22;19390;51.460;5.710;2022-09-30T09:59:59;22.30;99.90
33023;DHT22;19390;51.460;5.710;2022-09-30T10:02:30;22.40;99.90
33023;DHT22;19390;51.460;5.710;2022-09-30T10:04:57;22.00;99.90
33023;DHT22;19390;51.460;5.710;2022-09-30T10:07:32;22.60;99.90
33023;DHT22;19390;51.460;5.710;2022-09-30T10:10:15;22.90;99.90
33023;DHT22;19390;51.460;5.710;2022-09-30T10:12:44;23.90;99.90
33023;DHT22;19390;51.460;5.710;2022-09-30T10:15:22;23.90;99.90
33023;DHT22;19390;51.460;5.710;2022-09-30T10:17:56;23.70;99.90
33023;DHT22;19390;51.460;5.710;2022-09-30T10:23:07;21.90;99.90
33023;DHT22;19390;51.460;5.710;2022-09-30T10:25:33;21.20;99.90
33023;DHT22;19390;51.460;5.710;2022-09-30T10:28:19;22.10;99.90
33023;DHT22;19390;51.460;5.710;2022-09-30T10:33:34;22.60;99.90
33023;DHT22;19390;51.460;5.710;2022-09-30T10:36:01;23.50;99.90
33023;DHT22;19390;51.460;5.710;2022-09-30T10:38:28;23.90;99.90
33023;DHT22;19390;51.460;5.710;2022-09-30T10:40:57;22.60;99.90
33023;DHT22;19390;51.460;5.710;2022-09-30T10:43:31;22.50;99.90
33023;DHT22;19390;51.460;5.710;2022-09-30T10:45:58;22.40;99.90
33023;DHT22;19390;51.460;5.710;2022-09-30T10:48:30;22.40;99.90
33023;DHT22;19390;51.460;5.710;2022-09-30T10:50:57;22.00;99.90
33023;DHT22;19390;51.460;5.710;2022-09-30T10:53:25;22.10;99.90
33023;DHT22;19390;51.460;5.710;2022-09-30T10:55:52;22.70;99.90
33023;DHT22;19390;51.460;5.710;2022-09-30T11:00:58;21.20;99.90
33023;DHT22;19390;51.460;5.710;2022-09-30T11:03:39;19.90;99.90
33023;DHT22;19390;51.460;5.710;2022-09-30T11:06:05;19.50;99.90
33023;DHT22;19390;51.460;5.710;2022-09-30T11:08:54;22.40;99.90
33023;DHT22;19390;51.460;5.710;2022-09-30T11:11:26;21.90;99.90
33023;DHT22;19390;51.460;5.710;2022-09-30T11:14:03;23.10;99.90
33023;DHT22;19390;51.460;5.710;2022-09-30T11:21:42;19.20;99.90
33023;DHT22;19390;51.460;5.710;2022-09-30T11:38:00;25.70;99.90
33023;DHT22;19390;51.460;5.710;2022-09-30T11:40:39;20.50;99.90
33023;DHT22;19390;51.460;5.710;2022-09-30T11:43:27;22.00;99.90
33023;DHT22;19390;51.460;5.710;2022-09-30T11:57:04;18.70;99.90
33023;DHT22;19390;51.460;5.710;2022-09-30T12:02:03;22.10;99.90
33023;DHT22;19390;51.460;5.710;2022-09-30T12:04:43;19.00;99.90
33023;DHT22;19390;51.460;5.710;2022-09-30T12:07:15;20.10;99.90
33023;DHT22;19390;51.460;5.710;2022-09-30T12:09:46;18.40;99.90
33023;DHT22;19390;51.460;5.710;2022-09-30T12:12:16;17.90;99.90
33023;DHT22;19390;51.460;5.710;2022-09-30T12:15:00;21.40;99.90
33023;DHT22;19390;51.460;5.710;2022-09-30T12:20:29;23.40;99.90
33023;DHT22;19390;51.460;5.710;2022-09-30T12:23:08;18.60;99.90
33023;DHT22;19390;51.460;5.710;2022-09-30T12:25:45;22.40;99.90
33023;DHT22;19390;51.460;5.710;2022-09-30T12:36:50;22.30;99.90
33023;DHT22;19390;51.460;5.710;2022-09-30T12:39:48;20.80;99.90
33023;DHT22;19390;51.460;5.710;2022-09-30T12:48:14;20.70;99.90
33023;DHT22;19390;51.460;5.710;2022-09-30T12:50:50;24.10;99.90
33023;DHT22;19390;51.460;5.710;2022-09-30T12:53:29;20.70;99.90
33023;DHT22;19390;51.460;5.710;2022-09-30T12:56:10;18.50;99.90
33023;DHT22;19390;51.460;5.710;2022-09-30T12:58:51;18.20;99.90
33023;DHT22;19390;51.460;5.710;2022-09-30T13:01:22;23.30;99.90
33023;DHT22;19390;51.460;5.710;2022-09-30T13:06:24;22.00;99.90
33023;DHT22;19390;51.460;5.710;2022-09-30T13:19:36;21.90;99.90
33023;DHT22;19390;51.460;5.710;2022-09-30T13:25:13;20.80;99.90
33023;DHT22;19390;51.460;5.710;2022-09-30T13:27:46;19.40;99.90
33023;DHT22;19390;51.460;5.710;2022-09-30T13:32:39;18.50;99.90
33023;DHT22;19390;51.460;5.710;2022-09-30T13:40:51;17.80;99.90
33023;DHT22;19390;51.460;5.710;2022-09-30T13:43:45;17.40;99.90
33023;DHT22;19390;51.460;5.710;2022-09-30T13:46:23;17.60;99.90
33023;DHT22;19390;51.460;5.710;2022-09-30T13:48:56;19.70;99.90
33023;DHT22;19390;51.460;5.710;2022-09-30T13:51:25;18.90;99.90
33023;DHT22;19390;51.460;5.710;2022-09-30T13:53:54;20.20;99.90
33023;DHT22;19390;51.460;5.710;2022-09-30T13:56:26;20.80;99.90
33023;DHT22;19390;51.460;5.710;2022-09-30T14:24:24;20.70;99.90
33023;DHT22;19390;51.460;5.710;2022-09-30T14:32:33;19.20;99.90
33023;DHT22;19390;51.460;5.710;2022-09-30T14:35:06;19.60;99.90
33023;DHT22;19390;51.460;5.710;2022-09-30T14:37:43;18.10;99.90
33023;DHT22;19390;51.460;5.710;2022-09-30T14:40:13;18.50;99.90
33023;DHT22;19390;51.460;5.710;2022-09-30T14:42:41;18.80;99.90
33023;DHT22;19390;51.460;5.710;2022-09-30T14:45:25;19.90;99.90
33023;DHT22;19390;51.460;5.710;2022-09-30T14:47:54;18.80;99.90
33023;DHT22;19390;51.460;5.710;2022-09-30T14:50:28;18.90;99.90
33023;DHT22;19390;51.460;5.710;2022-09-30T14:52:55;19.20;99.90
33023;DHT22;19390;51.460;5.710;2022-09-30T14:55:31;19.00;99.90
33023;DHT22;19390;51.460;5.710;2022-09-30T15:03:39;17.70;99.90
33023;DHT22;19390;51.460;5.710;2022-09-30T15:06:15;17.40;99.90
33023;DHT22;19390;51.460;5.710;2022-09-30T15:08:41;17.30;99.90
33023;DHT22;19390;51.460;5.710;2022-09-30T15:11:07;17.00;99.90
33023;DHT22;19390;51.460;5.710;2022-09-30T15:13:32;16.70;99.90
33023;DHT22;19390;51.460;5.710;2022-09-30T15:16:00;16.80;99.90
33023;DHT22;19390;51.460;5.710;2022-09-30T15:18:33;16.90;99.90
33023;DHT22;19390;51.460;5.710;2022-09-30T15:21:14;17.00;99.90
33023;DHT22;19390;51.460;5.710;2022-09-30T15:23:43;17.10;99.90
33023;DHT22;19390;51.460;5.710;2022-09-30T15:26:11;17.20;99.90
33023;DHT22;19390;51.460;5.710;2022-09-30T15:28:37;17.20;99.90
33023;DHT22;19390;51.460;5.710;2022-09-30T15:31:05;17.20;99.90
33023;DHT22;19390;51.460;5.710;2022-09-30T15:33:32;17.20;99.90
33023;DHT22;19390;51.460;5.710;2022-09-30T15:36:07;16.90;99.90
33023;DHT22;19390;51.460;5.710;2022-09-30T15:38:37;16.90;99.90
33023;DHT22;19390;51.460;5.710;2022-09-30T15:41:07;17.10;99.90
33023;DHT22;19390;51.460;5.710;2022-09-30T15:43:40;17.20;99.90
33023;DHT22;19390;51.460;5.710;2022-09-30T15:46:25;17.10;99.90
33023;DHT22;19390;51.460;5.710;2022-09-30T15:49:00;17.20;99.90
33023;DHT22;19390;51.460;5.710;2022-09-30T15:51:38;16.80;99.90
33023;DHT22;19390;51.460;5.710;2022-09-30T15:56:41;16.60;99.90
33023;DHT22;19390;51.460;5.710;2022-09-30T15:59:12;16.50;99.90
33023;DHT22;19390;51.460;5.710;2022-09-30T16:01:45;16.50;99.90
33023;DHT22;19390;51.460;5.710;2022-09-30T16:09:24;16.30;99.90
33023;DHT22;19390;51.460;5.710;2022-09-30T16:17:37;16.20;99.90
33023;DHT22;19390;51.460;5.710;2022-09-30T16:20:06;16.20;99.90
33023;DHT22;19390;51.460;5.710;2022-09-30T16:27:37;15.90;99.90
33023;DHT22;19390;51.460;5.710;2022-09-30T16:30:04;15.80;99.90
33023;DHT22;19390;51.460;5.710;2022-09-30T16:32:34;15.70;99.90
33023;DHT22;19390;51.460;5.710;2022-09-30T16:35:01;15.50;99.90
33023;DHT22;19390;51.460;5.710;2022-09-30T16:37:27;15.40;99.90
33023;DHT22;19390;51.460;5.710;2022-09-30T16:39:54;15.40;99.90
33023;DHT22;19390;51.460;5.710;2022-09-30T16:42:21;15.20;99.90
33023;DHT22;19390;51.460;5.710;2022-09-30T16:44:47;15.10;99.90
33023;DHT22;19390;51.460;5.710;2022-09-30T16:47:14;15.00;99.90
33023;DHT22;19390;51.460;5.710;2022-09-30T16:49:40;14.90;99.90
33023;DHT22;19390;51.460;5.710;2022-09-30T16:52:09;14.80;99.90
33023;DHT22;19390;51.460;5.710;2022-09-30T16:54:36;14.70;99.90
33023;DHT22;19390;51.460;5.710;2022-09-30T16:57:02;14.60;99.90
33023;DHT22;19390;51.460;5.710;2022-09-30T16:59:28;14.40;99.90
33023;DHT22;19390;51.460;5.710;2022-09-30T17:01:57;14.40;99.90
33023;DHT22;19390;51.460;5.710;2022-09-30T17:04:25;14.30;99.90
33023;DHT22;19390;51.460;5.710;2022-09-30T17:06:51;14.10;99.90
33023;DHT22;19390;51.460;5.710;2022-09-30T17:09:17;14.10;99.90
33023;DHT22;19390;51.460;5.710;2022-09-30T17:11:43;14.00;99.90
33023;DHT22;19390;51.460;5.710;2022-09-30T17:14:09;14.00;99.90
33023;DHT22;19390;51.460;5.710;2022-09-30T17:16:35;14.00;99.90
33023;DHT22;19390;51.460;5.710;2022-09-30T17:19:01;13.90;99.90
33023;DHT22;19390;51.460;5.710;2022-09-30T17:21:27;13.70;99.90
33023;DHT22;19390;51.460;5.710;2022-09-30T17:23:55;13.70;99.90
33023;DHT22;19390;51.460;5.710;2022-09-30T17:26:22;13.70;99.90
33023;DHT22;19390;51.460;5.710;2022-09-30T17:28:47;13.60;99.90
33023;DHT22;19390;51.460;5.710;2022-09-30T17:31:13;13.40;99.90
33023;DHT22;19390;51.460;5.710;2022-09-30T17:33:40;13.30;99.90
33023;DHT22;19390;51.460;5.710;2022-09-30T17:36:08;13.20;99.90
33023;DHT22;19390;51.460;5.710;2022-09-30T17:38:35;13.20;99.90
33023;DHT22;19390;51.460;5.710;2022-09-30T17:41:02;13.10;99.90
33023;DHT22;19390;51.460;5.710;2022-09-30T17:43:47;13.20;99.90
33023;DHT22;19390;51.460;5.710;2022-09-30T17:46:13;13.30;99.90
33023;DHT22;19390;51.460;5.710;2022-09-30T17:48:44;13.40;99.90
33023;DHT22;19390;51.460;5.710;2022-09-30T17:51:11;13.30;99.90
33023;DHT22;19390;51.460;5.710;2022-09-30T17:53:37;13.40;99.90
33023;DHT22;19390;51.460;5.710;2022-09-30T17:56:10;13.20;99.90
33023;DHT22;19390;51.460;5.710;2022-09-30T17:58:38;13.20;99.90
33023;DHT22;19390;51.460;5.710;2022-09-30T18:01:08;13.20;99.90
33023;DHT22;19390;51.460;5.710;2022-09-30T18:03:34;13.10;99.90
33023;DHT22;19390;51.460;5.710;2022-09-30T18:06:00;13.20;99.90
33023;DHT22;19390;51.460;5.710;2022-09-30T18:08:26;13.20;99.90
33023;DHT22;19390;51.460;5.710;2022-09-30T18:10:55;13.20;99.90
33023;DHT22;19390;51.460;5.710;2022-09-30T18:13:25;13.20;99.90
33023;DHT22;19390;51.460;5.710;2022-09-30T18:15:51;13.20;99.90
33023;DHT22;19390;51.460;5.710;2022-09-30T18:18:17;13.00;99.90
33023;DHT22;19390;51.460;5.710;2022-09-30T18:20:44;13.00;99.90
33023;DHT22;19390;51.460;5.710;2022-09-30T18:23:10;12.90;99.90
33023;DHT22;19390;51.460;5.710;2022-09-30T18:25:36;12.90;99.90
33023;DHT22;19390;51.460;5.710;2022-09-30T18:28:04;12.90;99.90
33023;DHT22;19390;51.460;5.710;2022-09-30T18:30:33;13.00;99.90
33023;DHT22;19390;51.460;5.710;2022-09-30T18:32:59;12.90;99.90
33023;DHT22;19390;51.460;5.710;2022-09-30T18:35:24;12.90;99.90
33023;DHT22;19390;51.460;5.710;2022-09-30T18:37:52;12.70;99.90
33023;DHT22;19390;51.460;5.710;2022-09-30T18:40:20;12.70;99.90
33023;DHT22;19390;51.460;5.710;2022-09-30T18:42:46;12.60;99.90
33023;DHT22;19390;51.460;5.710;2022-09-30T18:45:12;12.60;99.90
33023;DHT22;19390;51.460;5.710;2022-09-30T18:47:39;12.60;99.90
33023;DHT22;19390;51.460;5.710;2022-09-30T18:50:10;12.50;99.90
33023;DHT22;19390;51.460;5.710;2022-09-30T18:52:37;12.40;99.90
33023;DHT22;19390;51.460;5.710;2022-09-30T18:55:04;12.30;99.90
33023;DHT22;19390;51.460;5.710;2022-09-30T18:57:29;12.20;99.90
33023;DHT22;19390;51.460;5.710;2022-09-30T18:59:57;12.20;99.90
33023;DHT22;19390;51.460;5.710;2022-09-30T19:02:23;12.10;99.90
33023;DHT22;19390;51.460;5.710;2022-09-30T19:04:49;12.30;99.90
33023;DHT22;19390;51.460;5.710;2022-09-30T19:07:19;12.20;99.90
33023;DHT22;19390;51.460;5.710;2022-09-30T19:09:45;12.30;99.90
33023;DHT22;19390;51.460;5.710;2022-09-30T19:12:11;12.30;99.90
33023;DHT22;19390;51.460;5.710;2022-09-30T19:14:39;12.30;99.90
33023;DHT22;19390;51.460;5.710;2022-09-30T19:17:06;12.20;99.90
33023;DHT22;19390;51.460;5.710;2022-09-30T19:19:33;12.30;99.90
33023;DHT22;19390;51.460;5.710;2022-09-30T19:22:08;12.20;99.90
33023;DHT22;19390;51.460;5.710;2022-09-30T19:24:35;12.30;99.90
33023;DHT22;19390;51.460;5.710;2022-09-30T19:27:01;12.30;99.90
33023;DHT22;19390;51.460;5.710;2022-09-30T19:29:27;12.30;99.90
33023;DHT22;19390;51.460;5.710;2022-09-30T19:31:53;12.40;99.90
33023;DHT22;19390;51.460;5.710;2022-09-30T19:34:18;12.50;99.90
33023;DHT22;19390;51.460;5.710;2022-09-30T19:36:45;12.40;99.90
33023;DHT22;19390;51.460;5.710;2022-09-30T19:39:11;12.40;99.90
33023;DHT22;19390;51.460;5.710;2022-09-30T19:41:36;12.50;99.90
33023;DHT22;19390;51.460;5.710;2022-09-30T19:44:02;12.40;99.90
33023;DHT22;19390;51.460;5.710;2022-09-30T19:46:28;12.50;99.90
33023;DHT22;19390;51.460;5.710;2022-09-30T19:48:54;12.50;99.90
33023;DHT22;19390;51.460;5.710;2022-09-30T19:51:21;12.60;99.90
33023;DHT22;19390;51.460;5.710;2022-09-30T19:53:47;12.60;99.90
33023;DHT22;19390;51.460;5.710;2022-09-30T19:56:15;12.60;99.90
33023;DHT22;19390;51.460;5.710;2022-09-30T19:58:43;12.60;99.90
33023;DHT22;19390;51.460;5.710;2022-09-30T20:01:10;12.60;99.90
33023;DHT22;19390;51.460;5.710;2022-09-30T20:03:37;12.60;99.90
33023;DHT22;19390;51.460;5.710;2022-09-30T20:06:06;12.70;99.90
33023;DHT22;19390;51.460;5.710;2022-09-30T20:08:35;12.60;99.90
33023;DHT22;19390;51.460;5.710;2022-09-30T20:11:06;12.60;99.90
33023;DHT22;19390;51.460;5.710;2022-09-30T20:13:33;12.60;99.90
33023;DHT22;19390;51.460;5.710;2022-09-30T20:16:07;12.60;99.90
33023;DHT22;19390;51.460;5.710;2022-09-30T20:18:33;12.70;99.90
33023;DHT22;19390;51.460;5.710;2022-09-30T20:20:59;12.70;99.90